Time;durP1;ratioP1;P1;durP2;ratioP2;P2;SDS_P1;SDS_P2;PMS_P1;PMS_P2;Temp;Humidity;BMP_temperature;BMP_pressure;BME280_temperature;BME280_humidity;BME280_pressure;Samples;Min_cycle;Max_cycle;Signal;HPM_P1;HPM_P2
2022/05/24 00:01:17;;;;;;;3.50;1.50;;;;;;;22.74;61.55;99231.88;5010256;28;20272;-75
2022/05/24 00:03:43;;;;;;;2.10;1.20;;;;;;;22.74;61.09;99237.63;5010252;28;20197;-74
2022/05/24 00:06:08;;;;;;;3.93;1.10;;;;;;;22.76;61.57;99231.41;4977036;28;20279;-74
2022/05/24 00:08:34;;;;;;;4.50;1.77;;;;;;;22.75;61.38;99227.75;4992892;28;20530;-74
2022/05/24 00:10:59;;;;;;;4.43;1.67;;;;;;;22.75;61.37;99224.03;4976166;28;20696;-74
2022/05/24 00:13:25;;;;;;;11.60;1.57;;;;;;;22.75;61.30;99229.78;4995742;28;20537;-74
2022/05/24 00:15:50;;;;;;;2.57;1.23;;;;;;;22.75;61.54;99219.09;4964924;28;20184;-75
2022/05/24 00:18:28;;;;;;;2.73;1.57;;;;;;;22.76;61.59;99229.38;4997297;28;20172;-76
2022/05/24 00:20:55;;;;;;;2.70;1.50;;;;;;;22.76;61.39;99214.97;4992500;28;20231;-75
2022/05/24 00:23:22;;;;;;;3.20;1.50;;;;;;;22.75;61.16;99201.84;4980327;28;20509;-74
2022/05/24 00:25:52;;;;;;;2.07;1.23;;;;;;;22.75;61.54;99210.47;4961115;28;20428;-76
2022/05/24 00:28:18;;;;;;;3.07;1.50;;;;;;;22.75;61.51;99216.22;4961469;28;20425;-75
2022/05/24 00:30:44;;;;;;;2.00;1.10;;;;;;;22.75;61.19;99213.34;4994336;28;20486;-75
2022/05/24 00:33:10;;;;;;;2.20;1.60;;;;;;;22.75;61.27;99230.63;4961259;28;20629;-74
2022/05/24 00:35:35;;;;;;;2.57;1.50;;;;;;;22.74;61.56;99214.59;4977257;28;20405;-74
2022/05/24 00:38:01;;;;;;;3.37;1.40;;;;;;;22.75;61.33;99206.78;4951482;28;20169;-76
2022/05/24 00:40:44;;;;;;;3.23;1.50;;;;;;;22.74;61.20;99211.72;4979514;28;20184;-75
2022/05/24 00:43:30;;;;;;;4.57;1.60;;;;;;;22.74;61.09;99205.97;4997559;28;20254;-75
2022/05/24 00:46:03;;;;;;;2.50;1.53;;;;;;;22.75;61.07;99206.78;4996386;28;20927;-74
2022/05/24 00:48:45;;;;;;;1.90;1.20;;;;;;;22.74;61.17;99203.09;4981169;28;20451;-74
2022/05/24 00:51:10;;;;;;;2.20;1.37;;;;;;;22.75;61.52;99203.91;4980750;28;20431;-74
2022/05/24 00:53:45;;;;;;;2.53;1.40;;;;;;;22.75;61.57;99207.59;4963783;28;20785;-74
2022/05/24 00:56:21;;;;;;;2.17;1.20;;;;;;;22.73;61.22;99195.69;4980260;28;20188;-74
2022/05/24 00:58:49;;;;;;;2.87;1.43;;;;;;;22.74;61.54;99188.72;4979805;28;20462;-74
2022/05/24 01:01:38;;;;;;;2.23;1.30;;;;;;;22.74;61.42;99188.72;4994393;28;20451;-75
2022/05/24 01:04:04;;;;;;;2.07;1.30;;;;;;;22.74;61.30;99185.84;4965633;28;20464;-75
2022/05/24 01:06:30;;;;;;;2.67;1.40;;;;;;;22.74;61.48;99185.84;4979318;28;20467;-74
2022/05/24 01:08:57;;;;;;;2.80;1.30;;;;;;;22.74;61.37;99182.94;4979425;28;20435;-75
2022/05/24 01:11:22;;;;;;;3.10;1.60;;;;;;;22.73;61.32;99169.78;5013679;28;20248;-74
2022/05/24 01:13:48;;;;;;;2.73;1.57;;;;;;;22.73;61.62;99181.31;4995641;28;20428;-75
2022/05/24 01:16:13;;;;;;;1.90;1.47;;;;;;;22.73;61.26;99175.53;4979781;28;20181;-75
2022/05/24 01:18:39;;;;;;;3.33;1.30;;;;;;;22.73;61.52;99171.88;4983175;28;20195;-75
2022/05/24 01:21:08;;;;;;;2.03;1.23;;;;;;;22.73;61.57;99161.16;4990229;28;20318;-74
2022/05/24 01:23:51;;;;;;;3.10;1.60;;;;;;;22.73;61.56;99174.75;4979208;28;20595;-74
2022/05/24 01:26:37;;;;;;;2.20;1.40;;;;;;;22.73;61.23;99177.63;4995007;28;20481;-74
2022/05/24 01:29:05;;;;;;;2.47;1.43;;;;;;;22.72;61.76;99179.69;4982552;28;20432;-76
2022/05/24 01:36:09;;;;;;;3.40;1.20;;;;;;;22.73;61.66;99183.38;4963225;28;20424;-74
2022/05/24 01:37:00;;;;;;;3.50;1.13;;;;;;;22.72;61.44;99173.94;4984865;28;20775;-74
2022/05/24 01:39:26;;;;;;;1.93;1.20;;;;;;;22.72;61.58;99171.06;4994661;28;20452;-74
2022/05/24 01:41:51;;;;;;;2.10;1.30;;;;;;;22.72;61.91;99156.66;4979471;28;20181;-74
2022/05/24 01:44:24;;;;;;;3.13;1.50;;;;;;;22.72;61.24;99162.41;4995427;28;20794;-74
2022/05/24 01:46:50;;;;;;;3.67;1.83;;;;;;;22.71;61.60;99165.72;4995482;28;20180;-74
2022/05/24 01:49:26;;;;;;;2.43;1.40;;;;;;;22.71;61.58;99149.28;4978436;28;20488;-74
2022/05/24 01:52:01;;;;;;;2.50;1.40;;;;;;;22.71;61.42;99166.56;4995395;28;20279;-74
2022/05/24 01:54:28;;;;;;;2.00;1.30;;;;;;;22.72;61.41;99171.06;4979168;28;20423;-76
2022/05/24 01:57:02;;;;;;;2.10;1.20;;;;;;;22.71;61.59;99169.44;4979291;28;21216;-75
2022/05/24 01:59:28;;;;;;;2.30;1.33;;;;;;;22.71;61.50;99178.06;4974670;28;20420;-74
2022/05/24 02:01:54;;;;;;;2.20;1.50;;;;;;;22.71;61.37;99174.34;4975043;28;20484;-74
2022/05/24 02:04:21;;;;;;;2.27;1.20;;;;;;;22.69;61.61;99174.81;4975612;28;20197;-74
2022/05/24 02:07:01;;;;;;;2.10;1.13;;;;;;;22.69;61.29;99179.75;4975528;28;20777;-74
2022/05/24 02:09:26;;;;;;;2.33;1.27;;;;;;;22.69;61.20;99185.50;4978270;28;20431;-74
2022/05/24 02:11:51;;;;;;;2.90;1.30;;;;;;;22.68;61.31;99172.38;4978612;28;20443;-74
2022/05/24 02:14:21;;;;;;;1.90;1.10;;;;;;;22.68;61.53;99167.41;4978402;28;20241;-75
2022/05/24 02:16:57;;;;;;;2.97;1.23;;;;;;;22.68;61.49;99163.75;4983340;28;20216;-75
2022/05/24 02:19:23;;;;;;;3.70;1.30;;;;;;;22.66;61.31;99160.47;4997545;28;20445;-74
2022/05/24 02:21:52;;;;;;;2.90;1.20;;;;;;;22.66;61.08;99149.78;4983069;28;20428;-74
2022/05/24 02:24:19;;;;;;;3.80;1.20;;;;;;;22.66;61.43;99158.41;4978597;28;20208;-74
2022/05/24 02:26:45;;;;;;;3.43;1.33;;;;;;;22.66;61.07;99155.53;4993709;28;20435;-75
2022/05/24 02:29:10;;;;;;;2.70;1.10;;;;;;;22.66;61.30;99146.91;4978605;28;20911;-74
2022/05/24 02:31:36;;;;;;;2.50;1.33;;;;;;;22.65;61.50;99148.16;4993914;28;20176;-74
2022/05/24 02:34:01;;;;;;;3.20;1.20;;;;;;;22.66;61.27;99154.72;4962118;28;20630;-75
2022/05/24 02:36:27;;;;;;;2.43;1.23;;;;;;;22.65;61.41;99145.28;4961191;28;20275;-76
2022/05/24 02:38:52;;;;;;;1.90;1.20;;;;;;;22.64;61.30;99140.78;4958012;28;20273;-75
2022/05/24 02:41:31;;;;;;;2.60;0.97;;;;;;;22.65;61.12;99144.47;4974699;28;20181;-75
2022/05/24 02:44:07;;;;;;;2.10;1.33;;;;;;;22.64;61.03;99140.78;4960882;28;20216;-74
2022/05/24 02:46:34;;;;;;;3.87;1.40;;;;;;;22.65;61.39;99132.94;4973023;28;20846;-75
2022/05/24 02:48:59;;;;;;;2.00;1.23;;;;;;;22.64;61.35;99137.91;4956600;28;20425;-75
2022/05/24 02:51:26;;;;;;;2.93;1.60;;;;;;;22.65;61.51;99139.53;4967662;28;20443;-75
2022/05/24 02:53:51;;;;;;;1.90;0.97;;;;;;;22.65;61.12;99139.53;4975872;28;20165;-74
2022/05/24 02:56:17;;;;;;;2.23;1.20;;;;;;;22.64;61.29;99143.66;4993817;28;20431;-75
2022/05/24 02:58:42;;;;;;;4.20;1.67;;;;;;;22.64;61.22;99137.91;4976090;28;20177;-75
2022/05/24 03:01:27;;;;;;;2.90;1.07;;;;;;;22.64;60.84;99152.28;4976407;28;20208;-74
2022/05/24 03:03:53;;;;;;;1.70;1.00;;;;;;;22.64;61.29;99140.78;4959952;28;20212;-74
2022/05/24 03:06:19;;;;;;;2.50;1.30;;;;;;;22.65;61.00;99145.28;4975875;28;20490;-76
2022/05/24 03:14:14;;;;;;;2.80;1.47;;;;;;;22.64;61.45;99129.28;4981428;28;20429;-74
2022/05/24 03:14:15;;;;;;;2.63;1.33;;;;;;;22.64;61.45;99126.41;4982959;28;20412;-75
2022/05/24 03:16:44;;;;;;;2.90;1.50;;;;;;;22.63;61.37;99139.13;4998270;28;20419;-74
2022/05/24 03:19:10;;;;;;;2.20;1.30;;;;;;;22.63;61.27;99153.53;4980639;28;20462;-75
2022/05/24 03:21:35;;;;;;;1.97;1.27;;;;;;;22.64;61.44;99152.28;4983871;28;20428;-75
2022/05/24 03:24:01;;;;;;;2.60;1.20;;;;;;;22.64;61.59;99142.84;4960750;28;20672;-74
2022/05/24 03:26:26;;;;;;;3.47;1.20;;;;;;;22.63;61.45;99144.09;4977417;28;20177;-75
2022/05/24 03:28:52;;;;;;;2.40;1.23;;;;;;;22.64;60.86;99160.09;4993007;28;20173;-74
2022/05/24 03:31:17;;;;;;;2.10;1.10;;;;;;;22.63;61.14;99152.72;4976619;28;20185;-75
2022/05/24 03:33:43;;;;;;;1.87;1.30;;;;;;;22.63;60.94;99152.72;4973632;28;20178;-74
2022/05/24 03:36:08;;;;;;;6.60;1.57;;;;;;;22.62;60.95;99151.91;4974186;28;20185;-74
2022/05/24 03:38:34;;;;;;;3.40;1.20;;;;;;;22.62;61.17;99151.91;4977237;28;20180;-75
2022/05/24 03:40:59;;;;;;;2.83;1.70;;;;;;;22.62;60.85;99151.91;4976685;28;20189;-75
2022/05/24 03:43:26;;;;;;;2.43;1.40;;;;;;;22.62;61.08;99139.59;4976764;28;20209;-74
2022/05/24 03:45:59;;;;;;;2.27;1.30;;;;;;;22.62;61.14;99156.84;4993202;28;20256;-74
2022/05/24 03:48:25;;;;;;;2.70;1.33;;;;;;;22.61;60.87;99144.53;4993060;28;20409;-75
2022/05/24 03:50:50;;;;;;;2.03;1.23;;;;;;;22.61;61.27;99156.03;4960633;28;20946;-76
2022/05/24 03:53:16;;;;;;;2.30;1.40;;;;;;;22.61;60.86;99167.53;4992922;28;20169;-76
2022/05/24 03:55:41;;;;;;;2.63;1.40;;;;;;;22.61;60.86;99169.59;4993383;28;20192;-74
2022/05/24 03:58:06;;;;;;;2.00;1.33;;;;;;;22.60;60.65;99171.69;4993076;28;20169;-75
2022/05/24 04:00:32;;;;;;;2.53;1.20;;;;;;;22.61;60.69;99178.22;4992784;28;20169;-76
2022/05/24 04:02:58;;;;;;;1.90;1.10;;;;;;;22.61;60.72;99175.34;5010511;28;20205;-76
2022/05/24 04:05:23;;;;;;;2.57;1.27;;;;;;;22.60;61.12;99165.91;4991977;28;20783;-74
2022/05/24 04:07:49;;;;;;;2.30;1.43;;;;;;;22.60;60.62;99171.69;4960194;28;20462;-75
2022/05/24 04:10:15;;;;;;;2.33;1.07;;;;;;;22.60;61.03;99162.22;4958487;28;20185;-75
2022/05/24 04:12:40;;;;;;;2.10;1.07;;;;;;;22.60;60.99;99160.16;4959015;28;20282;-75
2022/05/24 04:15:07;;;;;;;3.50;1.63;;;;;;;22.59;60.58;99164.28;4990654;28;20205;-75
2022/05/24 04:17:32;;;;;;;2.40;1.20;;;;;;;22.59;60.72;99172.09;5001979;28;20223;-75
2022/05/24 04:19:58;;;;;;;4.53;1.63;;;;;;;22.60;60.76;99173.72;5010257;28;20940;-75
2022/05/24 04:22:23;;;;;;;2.10;1.23;;;;;;;22.60;60.43;99173.72;4974485;28;20212;-75
2022/05/24 04:24:49;;;;;;;2.27;1.33;;;;;;;22.59;60.63;99169.22;5009717;28;20178;-74
2022/05/24 04:27:14;;;;;;;2.37;1.60;;;;;;;22.58;60.80;99182.78;4992677;28;20184;-75
2022/05/24 04:29:40;;;;;;;2.37;1.13;;;;;;;22.58;60.48;99185.66;4976339;28;20181;-74
2022/05/24 04:32:07;;;;;;;3.97;1.30;;;;;;;22.60;60.51;99190.97;4976561;28;20181;-75
2022/05/24 04:34:33;;;;;;;3.40;1.27;;;;;;;22.59;60.69;99190.19;4992600;28;20435;-74
2022/05/24 04:36:58;;;;;;;2.40;1.60;;;;;;;22.61;60.27;99189.72;4960263;28;20427;-74
2022/05/24 04:39:24;;;;;;;4.07;1.40;;;;;;;22.59;60.39;99193.06;5009662;28;20545;-74
2022/05/24 04:44:34;;;;;;;3.63;1.50;;;;;;;22.61;60.76;99207.81;5010110;28;20667;-75
2022/05/24 04:47:08;;;;;;;3.03;1.40;;;;;;;22.61;60.32;99212.75;4992433;28;20428;-76
2022/05/24 04:49:42;;;;;;;3.63;1.27;;;;;;;22.59;60.39;99218.97;4993659;28;20184;-75
2022/05/24 04:52:07;;;;;;;2.27;1.20;;;;;;;22.58;60.73;99220.19;4993106;28;20428;-75
2022/05/24 04:54:33;;;;;;;2.00;1.37;;;;;;;22.58;60.64;99219.38;4975508;28;20439;-74
2022/05/24 04:56:59;;;;;;;3.20;1.27;;;;;;;22.57;60.54;99212.81;4960289;28;20189;-74
2022/05/24 04:59:24;;;;;;;2.50;1.53;;;;;;;22.56;60.36;99216.94;4993036;28;20219;-75
2022/05/24 05:01:51;;;;;;;2.03;0.97;;;;;;;22.56;60.64;99222.69;4996329;28;20173;-74
2022/05/24 05:04:17;;;;;;;2.37;1.30;;;;;;;22.55;60.39;99226.81;4996151;28;20543;-74
2022/05/24 05:06:43;;;;;;;2.30;1.27;;;;;;;22.54;60.52;99230.97;4979429;28;20440;-74
2022/05/24 05:09:09;;;;;;;2.60;1.30;;;;;;;22.55;60.27;99229.69;4978697;28;20446;-74
2022/05/24 05:11:35;;;;;;;2.50;1.00;;;;;;;22.55;60.59;99231.75;4979047;28;20184;-75
2022/05/24 05:14:00;;;;;;;2.47;1.40;;;;;;;22.54;60.71;99235.88;4995277;28;20772;-75
2022/05/24 05:16:26;;;;;;;2.10;1.30;;;;;;;22.54;60.31;99230.97;4997469;28;20185;-74
2022/05/24 05:18:51;;;;;;;2.93;1.40;;;;;;;22.53;60.16;99226.44;5032074;28;20180;-76
2022/05/24 05:21:16;;;;;;;2.53;1.03;;;;;;;22.53;60.30;99243.69;5004571;28;20177;-75
2022/05/24 05:23:42;;;;;;;2.07;1.37;;;;;;;22.51;60.38;99260.56;4978691;28;20211;-74
2022/05/24 05:26:07;;;;;;;1.90;1.10;;;;;;;22.52;60.46;99261.41;4995270;28;20667;-75
2022/05/24 05:28:33;;;;;;;4.63;1.60;;;;;;;22.52;60.40;99275.78;4994962;28;20177;-75
2022/05/24 05:31:16;;;;;;;2.33;1.20;;;;;;;22.50;60.36;99281.97;5012237;28;20180;-74
2022/05/24 05:33:42;;;;;;;3.33;1.40;;;;;;;22.47;60.56;99299.28;4994460;28;20252;-74
2022/05/24 05:36:07;;;;;;;4.93;1.40;;;;;;;22.47;60.24;99345.31;4994305;28;20451;-75
2022/05/24 05:38:32;;;;;;;3.13;1.20;;;;;;;22.43;60.44;99347.38;4961250;28;20263;-74
2022/05/24 05:40:59;;;;;;;2.20;1.27;;;;;;;22.37;60.33;99355.66;4976992;28;20180;-75
2022/05/24 05:43:24;;;;;;;2.67;1.10;;;;;;;22.32;59.75;99361.09;4993816;28;20593;-74
2022/05/24 05:45:53;;;;;;;3.60;1.30;;;;;;;22.30;59.86;99361.50;4977360;28;20432;-76
2022/05/24 05:48:19;;;;;;;3.20;1.13;;;;;;;22.29;59.89;99351.25;5009495;28;20181;-75
2022/05/24 05:50:46;;;;;;;3.63;0.90;;;;;;;22.29;59.88;99354.13;4992819;28;21048;-74
2022/05/24 05:53:11;;;;;;;4.57;1.10;;;;;;;22.29;59.28;99356.19;4993538;28;20181;-75
2022/05/24 05:55:37;;;;;;;12.10;1.67;;;;;;;22.29;58.98;99365.63;4993763;28;20458;-75
2022/05/24 05:58:02;;;;;;;2.10;0.90;;;;;;;22.30;58.70;99358.63;4976289;28;20592;-74
2022/05/24 06:00:28;;;;;;;2.90;1.27;;;;;;;22.30;59.02;99358.63;4960361;28;20188;-74
2022/05/24 06:02:53;;;;;;;1.87;0.83;;;;;;;22.30;58.62;99367.25;4992357;28;20201;-74
2022/05/24 06:05:19;;;;;;;3.50;1.10;;;;;;;22.30;58.32;99375.06;5010003;28;20750;-75
2022/05/24 06:07:45;;;;;;;5.13;1.30;;;;;;;22.29;58.54;99380.00;5009894;28;20180;-74
2022/05/24 06:10:11;;;;;;;2.57;1.03;;;;;;;22.29;58.41;99391.50;5008107;28;20253;-74
2022/05/24 06:12:36;;;;;;;2.37;0.97;;;;;;;22.30;58.02;99398.88;4960360;28;20216;-74
2022/05/24 06:15:02;;;;;;;4.80;0.93;;;;;;;22.29;58.41;99405.06;4975614;28;20448;-75
2022/05/24 06:17:28;;;;;;;5.53;0.90;;;;;;;22.26;57.74;99420.28;5002985;28;20176;-75
2022/05/24 06:19:53;;;;;;;3.10;1.00;;;;;;;22.25;57.80;99422.34;5028879;28;20172;-76
2022/05/24 06:22:19;;;;;;;2.53;0.80;;;;;;;22.25;58.08;99418.66;5010739;28;20204;-74
2022/05/24 06:24:46;;;;;;;3.10;1.00;;;;;;;22.28;58.28;99437.94;4960712;28;20243;-74
2022/05/24 06:27:11;;;;;;;2.03;0.90;;;;;;;22.27;57.61;99442.88;4993931;28;20269;-75
2022/05/24 06:29:37;;;;;;;2.20;0.70;;;;;;;22.25;57.48;99454.00;4977468;28;20424;-75
2022/05/24 06:32:03;;;;;;;1.70;0.63;;;;;;;22.27;57.77;99453.56;4977383;28;20260;-74
2022/05/24 06:34:32;;;;;;;11.33;1.13;;;;;;;22.28;57.51;99466.69;4977073;28;20710;-74
2022/05/24 06:36:57;;;;;;;4.53;0.90;;;;;;;22.28;57.52;99487.63;4978121;28;20416;-74
2022/05/24 06:39:23;;;;;;;1.70;0.80;;;;;;;22.28;57.34;99502.00;4992668;28;20439;-74
2022/05/24 06:41:49;;;;;;;2.60;1.03;;;;;;;22.30;58.12;99513.91;4966765;28;20527;-75
2022/05/24 06:44:14;;;;;;;3.80;1.00;;;;;;;22.29;57.85;99512.28;4971293;28;20676;-75
2022/05/24 06:46:40;;;;;;;5.70;0.70;;;;;;;22.29;57.32;99515.16;4968045;28;20204;-74
2022/05/24 06:49:05;;;;;;;2.37;0.97;;;;;;;22.27;57.25;99509.00;4964836;28;20727;-74
2022/05/24 06:51:30;;;;;;;2.40;1.00;;;;;;;22.29;57.62;99528.72;4977075;28;20189;-75
2022/05/24 06:53:56;;;;;;;3.50;1.10;;;;;;;22.29;57.95;99535.31;4993208;28;20181;-75
2022/05/24 06:56:21;;;;;;;3.63;0.80;;;;;;;22.27;57.08;99534.09;5010941;28;20174;-74
2022/05/24 06:58:47;;;;;;;2.43;1.00;;;;;;;22.27;57.26;99543.53;4993127;28;20188;-74
2022/05/24 07:03:57;;;;;;;2.17;0.87;;;;;;;22.27;57.00;99557.91;4982254;28;20787;-74
2022/05/24 07:06:23;;;;;;;5.43;0.93;;;;;;;22.24;57.49;99563.69;4976841;28;20539;-74
2022/05/24 07:08:49;;;;;;;2.27;0.93;;;;;;;22.24;56.77;99550.13;4992828;28;20170;-74
2022/05/24 07:11:17;;;;;;;2.60;0.70;;;;;;;22.25;57.13;99543.13;4975653;28;20227;-75
2022/05/24 07:13:43;;;;;;;1.93;0.70;;;;;;;22.25;57.26;99548.06;4993174;28;20474;-74
2022/05/24 07:16:08;;;;;;;3.73;0.80;;;;;;;22.26;57.60;99552.56;4975302;28;20413;-74
2022/05/24 07:18:34;;;;;;;1.60;0.80;;;;;;;22.25;57.52;99563.25;4994413;28;20880;-74
2022/05/24 07:21:00;;;;;;;2.10;1.00;;;;;;;22.26;57.51;99559.16;4986857;28;20185;-74
2022/05/24 07:23:25;;;;;;;1.70;0.80;;;;;;;22.25;57.27;99566.16;4974818;28;20498;-75
2022/05/24 07:25:51;;;;;;;2.23;0.70;;;;;;;22.27;57.27;99566.53;4959433;28;20251;-75
2022/05/24 07:28:17;;;;;;;2.37;1.30;;;;;;;22.28;57.45;99570.22;4959644;28;20184;-74
2022/05/24 07:30:43;;;;;;;1.60;0.80;;;;;;;22.29;57.16;99581.31;4960176;28;20670;-75
2022/05/24 07:33:08;;;;;;;1.80;0.77;;;;;;;22.29;57.41;99578.44;4992860;28;20420;-75
2022/05/24 07:35:34;;;;;;;2.93;0.80;;;;;;;22.29;57.60;99581.31;4976777;28;20189;-75
2022/05/24 07:38:00;;;;;;;3.30;1.07;;;;;;;22.29;57.35;99575.56;4976856;28;20188;-74
2022/05/24 07:46:06;;;;;;;2.07;0.97;;;;;;;22.27;57.23;99572.28;4980883;28;20567;-76
2022/05/24 07:48:34;;;;;;;1.70;0.70;;;;;;;22.27;57.52;99572.28;4976648;28;20494;-74
2022/05/24 07:51:00;;;;;;;2.70;0.90;;;;;;;22.27;57.22;99572.28;5009165;28;21434;-75
2022/05/24 07:53:25;;;;;;;2.70;0.80;;;;;;;22.28;57.00;99568.16;4992092;28;20415;-74
2022/05/24 07:55:51;;;;;;;1.57;0.70;;;;;;;22.29;57.33;99572.69;4976051;28;20704;-75
2022/05/24 07:58:16;;;;;;;1.60;0.70;;;;;;;22.30;57.26;99571.44;4992845;28;20177;-76
2022/05/24 08:00:42;;;;;;;1.50;0.70;;;;;;;22.29;57.02;99569.81;4959750;28;20181;-78
2022/05/24 08:03:07;;;;;;;1.67;0.77;;;;;;;22.27;57.19;99580.91;4974526;28;20209;-73
2022/05/24 08:05:34;;;;;;;2.27;0.90;;;;;;;22.28;57.52;99573.91;4970478;28;20244;-73
2022/05/24 08:08:00;;;;;;;5.10;1.73;;;;;;;22.42;58.01;99568.03;4972477;28;20196;-73
2022/05/24 08:10:27;;;;;;;4.70;1.70;;;;;;;22.51;58.57;99577.03;4971818;28;20464;-73
2022/05/24 08:12:52;;;;;;;5.43;1.60;;;;;;;22.66;58.84;99577.69;4982018;28;20877;-75
2022/05/24 08:15:18;;;;;;;4.87;1.87;;;;;;;22.72;59.47;99587.53;4983110;28;20508;-74
2022/05/24 08:17:44;;;;;;;4.70;2.40;;;;;;;22.69;58.81;99580.56;4985188;28;20258;-73
2022/05/24 08:20:11;;;;;;;4.57;1.60;;;;;;;22.56;59.46;99579.44;4995142;28;20681;-75
2022/05/24 08:22:38;;;;;;;6.57;1.60;;;;;;;22.49;59.24;99593.91;4956703;28;20626;-72
2022/05/24 08:25:05;;;;;;;4.67;1.50;;;;;;;22.47;59.53;99584.88;4972495;28;20421;-74
2022/05/24 08:27:32;;;;;;;4.80;1.20;;;;;;;22.45;58.94;99593.13;4972519;28;21016;-74
2022/05/24 08:29:59;;;;;;;2.77;1.17;;;;;;;22.37;57.92;99587.81;4988514;28;21063;-73
2022/05/24 08:32:25;;;;;;;1.90;1.00;;;;;;;22.30;57.23;99582.13;4987877;28;20433;-73
2022/05/24 08:34:50;;;;;;;4.63;1.03;;;;;;;22.26;57.28;99595.69;4991994;28;20436;-73
2022/05/24 08:37:16;;;;;;;2.07;0.70;;;;;;;22.29;58.22;99601.44;4959668;28;20232;-74
2022/05/24 08:39:41;;;;;;;3.73;1.10;;;;;;;22.30;57.41;99600.19;4992434;28;20518;-73
2022/05/24 08:42:06;;;;;;;4.53;0.90;;;;;;;22.30;57.52;99594.44;4958219;28;20197;-72
2022/05/24 08:50:40;;;;;;;2.57;0.90;;;;;;;22.25;55.06;99573.94;4990770;28;20955;-73
2022/05/24 08:53:09;;;;;;;2.87;0.70;;;;;;;22.27;55.78;99571.47;4958197;28;20444;-73
2022/05/24 08:55:36;;;;;;;2.53;1.13;;;;;;;22.26;55.50;99576.41;4976524;28;20196;-73
2022/05/24 08:58:01;;;;;;;1.60;0.70;;;;;;;22.24;54.68;99576.00;4958973;28;20826;-73
2022/05/24 09:00:34;;;;;;;3.17;0.83;;;;;;;22.21;54.97;99573.97;4975837;28;20432;-73
2022/05/24 09:03:01;;;;;;;2.53;0.70;;;;;;;22.21;54.77;99573.97;4975792;28;20332;-73
2022/05/24 09:05:49;;;;;;;2.03;1.20;;;;;;;22.20;54.71;99577.25;4959397;28;20943;-74
2022/05/24 09:08:21;;;;;;;1.90;0.80;;;;;;;22.28;53.37;99582.53;4950336;28;20452;-73
2022/05/24 09:11:00;;;;;;;1.70;0.70;;;;;;;22.35;53.80;99579.63;4980338;28;20937;-73
2022/05/24 09:13:44;;;;;;;1.30;0.60;;;;;;;22.36;53.26;99575.50;4977319;28;20420;-73
2022/05/24 09:16:12;;;;;;;6.37;0.83;;;;;;;22.37;53.55;99570.56;4992518;28;20491;-72
2022/05/24 09:18:53;;;;;;;1.50;0.70;;;;;;;22.32;52.20;99580.44;4995941;28;20497;-73
2022/05/24 09:21:25;;;;;;;2.30;0.77;;;;;;;22.29;52.27;99581.31;4976706;28;20460;-72
2022/05/24 09:24:11;;;;;;;2.13;0.90;;;;;;;22.30;51.73;99585.00;4959832;28;21070;-73
2022/05/24 09:27:02;;;;;;;9.33;1.00;;;;;;;22.25;51.50;99580.53;4991234;28;20421;-73
2022/05/24 09:29:28;;;;;;;3.17;1.20;;;;;;;22.24;51.75;99584.66;4991517;28;20524;-73
2022/05/24 09:31:53;;;;;;;2.13;0.90;;;;;;;22.29;51.90;99592.81;4974595;28;20425;-72
2022/05/24 09:34:19;;;;;;;3.93;1.20;;;;;;;22.44;51.86;99582.00;4990307;28;20186;-72
2022/05/24 09:36:59;;;;;;;2.00;0.87;;;;;;;22.52;52.46;99580.72;4990583;28;20182;-73
2022/05/24 09:39:36;;;;;;;3.83;1.30;;;;;;;22.54;52.18;99586.88;4988943;28;20748;-73
2022/05/24 09:42:04;;;;;;;3.10;1.10;;;;;;;22.43;50.86;99589.78;4969392;28;20994;-74
2022/05/24 09:45:09;;;;;;;3.53;0.60;;;;;;;22.41;51.04;99589.41;4987778;28;20880;-74
2022/05/24 09:47:41;;;;;;;3.20;0.80;;;;;;;22.38;51.66;99584.50;4966429;28;20531;-74
2022/05/24 09:50:19;;;;;;;2.03;0.80;;;;;;;22.38;50.91;99575.88;4988197;28;20439;-73
2022/05/24 09:53:10;;;;;;;4.07;0.83;;;;;;;22.44;50.63;99587.75;4986729;28;20460;-73
2022/05/24 09:56:02;;;;;;;2.03;0.87;;;;;;;22.46;50.96;99582.41;4991269;28;20932;-71
2022/05/24 09:58:28;;;;;;;1.73;0.70;;;;;;;22.56;50.69;99578.63;4991089;28;20425;-71
2022/05/24 10:01:10;;;;;;;3.60;0.83;;;;;;;22.57;50.67;99586.81;4991030;28;20932;-73
2022/05/24 10:03:43;;;;;;;4.33;1.00;;;;;;;22.47;50.94;99593.50;4973845;28;20468;-72
2022/05/24 10:06:14;;;;;;;4.27;0.70;;;;;;;22.40;50.26;99595.59;4972114;28;20479;-74
2022/05/24 10:08:44;;;;;;;5.17;1.30;;;;;;;22.47;51.36;99593.50;4988717;28;20444;-73
2022/05/24 10:11:36;;;;;;;6.67;1.13;;;;;;;22.60;51.10;99600.38;4988105;28;20436;-75
2022/05/24 10:14:10;;;;;;;4.03;0.87;;;;;;;22.64;51.06;99606.09;4974167;28;20432;-74
2022/05/24 10:17:00;;;;;;;2.47;0.90;;;;;;;22.63;51.00;99605.25;4993296;28;20427;-73
2022/05/24 10:20:03;;;;;;;9.30;1.80;;;;;;;22.76;51.45;99594.84;5010407;28;20791;-72
2022/05/24 10:22:54;;;;;;;2.23;1.07;;;;;;;22.95;51.34;99597.13;4954797;28;20524;-74
2022/05/24 10:25:37;;;;;;;3.17;1.20;;;;;;;22.87;51.73;99598.44;4960234;28;20437;-77
2022/05/24 10:28:47;;;;;;;4.17;1.00;;;;;;;22.72;51.35;99591.19;4990521;28;20432;-74
2022/05/24 10:31:15;;;;;;;2.37;0.70;;;;;;;22.68;51.10;99599.03;4990412;28;20493;-72
2022/05/24 10:39:47;;;;;;;1.70;0.80;;;;;;;22.54;49.33;99599.19;4990071;28;20408;-75
2022/05/24 10:42:17;;;;;;;2.67;0.90;;;;;;;22.48;50.00;99595.13;4988735;28;20440;-77
2022/05/24 10:44:45;;;;;;;6.77;1.03;;;;;;;22.46;49.16;99597.63;4990400;28;20437;-75
2022/05/24 10:47:24;;;;;;;3.70;1.10;;;;;;;22.38;48.57;99593.13;4972991;28;20421;-73
2022/05/24 10:50:01;;;;;;;3.10;0.90;;;;;;;22.40;49.29;99605.03;4971849;28;20428;-74
2022/05/24 10:52:55;;;;;;;6.17;0.93;;;;;;;22.42;49.22;99593.91;4970276;28;20808;-74
2022/05/24 10:56:02;;;;;;;3.40;0.80;;;;;;;22.51;50.00;99591.41;4987324;28;20421;-73
2022/05/24 10:58:29;;;;;;;2.30;0.67;;;;;;;22.49;49.48;99595.94;4928755;29;20443;-74
2022/05/24 11:01:32;;;;;;;2.57;0.80;;;;;;;22.55;49.61;99595.06;4965994;28;20432;-73
2022/05/24 11:04:06;;;;;;;1.77;0.63;;;;;;;22.57;49.43;99588.91;4988070;28;20516;-72
2022/05/24 11:06:38;;;;;;;2.27;0.90;;;;;;;22.58;49.14;99579.03;4973339;28;20464;-75
2022/05/24 11:09:06;;;;;;;1.90;0.90;;;;;;;22.57;49.29;99578.19;4973730;28;20421;-72
2022/05/24 11:11:59;;;;;;;2.80;0.90;;;;;;;22.52;48.65;99578.66;4957496;28;21221;-74
2022/05/24 11:14:28;;;;;;;4.73;0.90;;;;;;;22.46;48.60;99579.53;4954488;28;20942;-74
2022/05/24 11:16:54;;;;;;;2.33;0.90;;;;;;;22.32;48.78;99579.66;4995533;28;20868;-73
2022/05/24 11:19:22;;;;;;;2.07;0.70;;;;;;;22.29;48.16;99586.25;5007087;28;20424;-73
2022/05/24 11:21:47;;;;;;;2.70;0.73;;;;;;;22.30;48.50;99582.94;4971799;28;20648;-73
2022/05/24 11:24:42;;;;;;;2.30;0.80;;;;;;;22.32;48.65;99574.69;4989445;28;20460;-76
2022/05/24 11:27:07;;;;;;;4.03;1.00;;;;;;;22.36;49.41;99581.25;4985486;28;20247;-74
2022/05/24 11:29:48;;;;;;;2.80;1.00;;;;;;;22.39;49.05;99585.31;4988361;28;20761;-76
2022/05/24 11:32:18;;;;;;;2.97;0.90;;;;;;;22.42;50.09;99591.03;4990349;28;20185;-76
2022/05/24 11:35:19;;;;;;;3.37;0.93;;;;;;;22.38;49.49;99578.75;4971637;28;20444;-74
2022/05/24 11:37:58;;;;;;;2.10;0.73;;;;;;;22.36;49.26;99575.50;4973869;28;20445;-73
2022/05/24 11:40:38;;;;;;;2.87;1.00;;;;;;;22.36;49.01;99584.13;4987979;28;20507;-76
2022/05/24 11:43:31;;;;;;;4.30;1.00;;;;;;;22.33;49.32;99587.81;4954876;28;20463;-77
2022/05/24 11:46:07;;;;;;;6.47;0.77;;;;;;;22.34;49.39;99592.38;4974633;28;20473;-75
2022/05/24 11:48:40;;;;;;;1.97;0.77;;;;;;;22.34;48.94;99591.53;4986551;28;20924;-74
2022/05/24 11:51:39;;;;;;;2.43;0.80;;;;;;;22.38;49.94;99587.38;4988507;28;20433;-77
2022/05/24 11:54:28;;;;;;;2.13;0.80;;;;;;;22.37;49.74;99594.38;4988575;28;20424;-77
2022/05/24 11:57:03;;;;;;;1.93;0.80;;;;;;;22.41;49.81;99597.22;4959195;28;20429;-72
2022/05/24 11:59:40;;;;;;;3.47;0.87;;;;;;;22.40;50.39;99599.28;4987924;28;20425;-71
2022/05/24 12:08:28;;;;;;;5.57;1.07;;;;;;;22.33;50.33;99601.41;5004900;28;20823;-74
2022/05/24 12:11:06;;;;;;;3.60;1.00;;;;;;;22.41;50.62;99603.78;4951461;28;20782;-74
2022/05/24 12:13:33;;;;;;;3.77;0.80;;;;;;;22.41;49.77;99603.78;5003484;28;20993;-71
2022/05/24 12:16:00;;;;;;;3.07;0.83;;;;;;;22.37;49.66;99614.50;4975829;28;20432;-74
2022/05/24 12:18:38;;;;;;;3.40;0.80;;;;;;;22.34;50.34;99611.66;4975780;28;20507;-72
2022/05/24 12:21:03;;;;;;;2.17;0.80;;;;;;;22.34;49.90;99605.91;4975532;28;20435;-72
2022/05/24 12:23:29;;;;;;;4.93;1.00;;;;;;;22.33;49.79;99602.22;4973215;28;20502;-72